sensor_id;sensor_type;location;lat;lon;timestamp;P1;durP1;ratioP1;P2;durP2;ratioP2
83550;SDS011;74617;47.082;15.524;2023-12-04T00:01:28;4.30;;;1.17;;
83550;SDS011;74617;47.082;15.524;2023-12-04T00:03:53;3.85;;;1.10;;
83550;SDS011;74617;47.082;15.524;2023-12-04T00:06:19;2.97;;;1.40;;
83550;SDS011;74617;47.082;15.524;2023-12-04T00:08:44;2.13;;;0.90;;
83550;SDS011;74617;47.082;15.524;2023-12-04T00:11:10;2.35;;;1.20;;
83550;SDS011;74617;47.082;15.524;2023-12-04T00:13:35;2.50;;;0.90;;
83550;SDS011;74617;47.082;15.524;2023-12-04T00:16:01;1.75;;;0.85;;
83550;SDS011;74617;47.082;15.524;2023-12-04T00:18:26;2.75;;;1.02;;
83550;SDS011;74617;47.082;15.524;2023-12-04T00:20:52;1.83;;;0.85;;
83550;SDS011;74617;47.082;15.524;2023-12-04T00:23:17;2.15;;;0.90;;
83550;SDS011;74617;47.082;15.524;2023-12-04T00:25:43;1.80;;;0.98;;
83550;SDS011;74617;47.082;15.524;2023-12-04T00:28:08;2.38;;;1.02;;
83550;SDS011;74617;47.082;15.524;2023-12-04T00:30:33;3.90;;;1.40;;
83550;SDS011;74617;47.082;15.524;2023-12-04T00:32:59;2.25;;;0.75;;
83550;SDS011;74617;47.082;15.524;2023-12-04T00:35:24;2.33;;;0.90;;
83550;SDS011;74617;47.082;15.524;2023-12-04T00:37:50;5.55;;;1.05;;
83550;SDS011;74617;47.082;15.524;2023-12-04T00:40:15;1.15;;;0.77;;
83550;SDS011;74617;47.082;15.524;2023-12-04T00:42:41;2.88;;;0.90;;
83550;SDS011;74617;47.082;15.524;2023-12-04T00:45:06;2.38;;;1.20;;
83550;SDS011;74617;47.082;15.524;2023-12-04T00:47:32;2.42;;;0.90;;
83550;SDS011;74617;47.082;15.524;2023-12-04T00:49:57;2.38;;;0.85;;
83550;SDS011;74617;47.082;15.524;2023-12-04T00:52:23;2.20;;;1.00;;
83550;SDS011;74617;47.082;15.524;2023-12-04T00:54:48;3.28;;;1.08;;
83550;SDS011;74617;47.082;15.524;2023-12-04T00:57:13;3.83;;;1.08;;
83550;SDS011;74617;47.082;15.524;2023-12-04T00:59:39;1.75;;;0.90;;
83550;SDS011;74617;47.082;15.524;2023-12-04T01:02:06;3.08;;;1.08;;
83550;SDS011;74617;47.082;15.524;2023-12-04T01:04:32;2.97;;;1.05;;
83550;SDS011;74617;47.082;15.524;2023-12-04T01:06:57;1.88;;;0.82;;
83550;SDS011;74617;47.082;15.524;2023-12-04T01:09:22;3.55;;;1.05;;
83550;SDS011;74617;47.082;15.524;2023-12-04T01:11:51;2.83;;;1.27;;
83550;SDS011;74617;47.082;15.524;2023-12-04T01:14:17;1.83;;;1.05;;
83550;SDS011;74617;47.082;15.524;2023-12-04T01:16:42;1.85;;;0.88;;
83550;SDS011;74617;47.082;15.524;2023-12-04T01:19:08;2.00;;;0.88;;
83550;SDS011;74617;47.082;15.524;2023-12-04T01:21:33;3.05;;;1.23;;
83550;SDS011;74617;47.082;15.524;2023-12-04T01:23:58;1.88;;;0.80;;
83550;SDS011;74617;47.082;15.524;2023-12-04T01:26:24;3.30;;;1.38;;
83550;SDS011;74617;47.082;15.524;2023-12-04T01:28:49;4.40;;;1.15;;
83550;SDS011;74617;47.082;15.524;2023-12-04T01:31:14;3.55;;;1.27;;
83550;SDS011;74617;47.082;15.524;2023-12-04T01:33:40;2.47;;;0.88;;
83550;SDS011;74617;47.082;15.524;2023-12-04T01:36:05;1.73;;;0.70;;
83550;SDS011;74617;47.082;15.524;2023-12-04T01:38:31;2.20;;;0.90;;
83550;SDS011;74617;47.082;15.524;2023-12-04T01:40:56;2.75;;;1.20;;
83550;SDS011;74617;47.082;15.524;2023-12-04T01:43:22;2.08;;;0.93;;
83550;SDS011;74617;47.082;15.524;2023-12-04T01:45:47;2.53;;;0.95;;
83550;SDS011;74617;47.082;15.524;2023-12-04T01:48:14;2.17;;;0.93;;
83550;SDS011;74617;47.082;15.524;2023-12-04T01:50:40;1.90;;;0.85;;
83550;SDS011;74617;47.082;15.524;2023-12-04T01:53:05;2.85;;;1.23;;
83550;SDS011;74617;47.082;15.524;2023-12-04T01:55:31;3.45;;;0.90;;
83550;SDS011;74617;47.082;15.524;2023-12-04T01:57:59;2.53;;;1.00;;
83550;SDS011;74617;47.082;15.524;2023-12-04T02:00:27;2.70;;;1.15;;
83550;SDS011;74617;47.082;15.524;2023-12-04T02:02:54;1.95;;;0.95;;
83550;SDS011;74617;47.082;15.524;2023-12-04T02:05:20;1.67;;;0.70;;
83550;SDS011;74617;47.082;15.524;2023-12-04T02:07:47;3.60;;;1.10;;
83550;SDS011;74617;47.082;15.524;2023-12-04T02:10:13;3.13;;;1.30;;
83550;SDS011;74617;47.082;15.524;2023-12-04T02:12:38;2.25;;;0.95;;
83550;SDS011;74617;47.082;15.524;2023-12-04T02:15:04;1.67;;;0.82;;
83550;SDS011;74617;47.082;15.524;2023-12-04T02:17:30;1.75;;;0.90;;
83550;SDS011;74617;47.082;15.524;2023-12-04T02:19:57;1.70;;;0.68;;
83550;SDS011;74617;47.082;15.524;2023-12-04T02:22:23;2.22;;;1.20;;
83550;SDS011;74617;47.082;15.524;2023-12-04T02:24:48;3.13;;;1.10;;
83550;SDS011;74617;47.082;15.524;2023-12-04T02:27:23;2.25;;;0.75;;
83550;SDS011;74617;47.082;15.524;2023-12-04T02:29:53;2.33;;;1.20;;
83550;SDS011;74617;47.082;15.524;2023-12-04T02:32:24;1.95;;;1.05;;
83550;SDS011;74617;47.082;15.524;2023-12-04T02:34:54;1.08;;;0.47;;
83550;SDS011;74617;47.082;15.524;2023-12-04T02:37:21;1.92;;;0.70;;
83550;SDS011;74617;47.082;15.524;2023-12-04T02:39:48;4.20;;;0.85;;
83550;SDS011;74617;47.082;15.524;2023-12-04T02:42:14;1.60;;;0.70;;
83550;SDS011;74617;47.082;15.524;2023-12-04T02:44:42;1.73;;;0.80;;
83550;SDS011;74617;47.082;15.524;2023-12-04T02:47:07;1.95;;;1.02;;
83550;SDS011;74617;47.082;15.524;2023-12-04T02:49:33;2.28;;;1.08;;
83550;SDS011;74617;47.082;15.524;2023-12-04T02:51:58;1.77;;;0.68;;
83550;SDS011;74617;47.082;15.524;2023-12-04T02:54:23;1.90;;;0.95;;
83550;SDS011;74617;47.082;15.524;2023-12-04T02:56:49;3.30;;;1.02;;
83550;SDS011;74617;47.082;15.524;2023-12-04T02:59:15;3.53;;;1.02;;
83550;SDS011;74617;47.082;15.524;2023-12-04T03:01:40;2.10;;;0.80;;
83550;SDS011;74617;47.082;15.524;2023-12-04T03:04:05;1.05;;;0.70;;
83550;SDS011;74617;47.082;15.524;2023-12-04T03:06:31;2.40;;;1.02;;
83550;SDS011;74617;47.082;15.524;2023-12-04T03:08:56;1.60;;;0.93;;
83550;SDS011;74617;47.082;15.524;2023-12-04T03:11:24;1.13;;;0.68;;
83550;SDS011;74617;47.082;15.524;2023-12-04T03:13:49;2.17;;;0.90;;
83550;SDS011;74617;47.082;15.524;2023-12-04T03:16:15;1.25;;;0.70;;
83550;SDS011;74617;47.082;15.524;2023-12-04T03:18:42;1.50;;;0.73;;
83550;SDS011;74617;47.082;15.524;2023-12-04T03:21:07;1.40;;;0.77;;
83550;SDS011;74617;47.082;15.524;2023-12-04T03:23:33;0.73;;;0.45;;
83550;SDS011;74617;47.082;15.524;2023-12-04T03:25:58;3.38;;;0.85;;
83550;SDS011;74617;47.082;15.524;2023-12-04T03:28:23;1.48;;;0.77;;
83550;SDS011;74617;47.082;15.524;2023-12-04T03:30:49;2.50;;;0.80;;
83550;SDS011;74617;47.082;15.524;2023-12-04T03:33:14;1.60;;;0.70;;
83550;SDS011;74617;47.082;15.524;2023-12-04T03:35:39;2.55;;;0.93;;
83550;SDS011;74617;47.082;15.524;2023-12-04T03:38:05;1.70;;;0.73;;
83550;SDS011;74617;47.082;15.524;2023-12-04T03:40:31;2.35;;;0.93;;
83550;SDS011;74617;47.082;15.524;2023-12-04T03:42:56;1.27;;;0.70;;
83550;SDS011;74617;47.082;15.524;2023-12-04T03:45:22;1.50;;;0.70;;
83550;SDS011;74617;47.082;15.524;2023-12-04T03:47:47;1.33;;;0.57;;
83550;SDS011;74617;47.082;15.524;2023-12-04T03:50:12;1.45;;;0.88;;
83550;SDS011;74617;47.082;15.524;2023-12-04T03:52:38;2.30;;;0.90;;
83550;SDS011;74617;47.082;15.524;2023-12-04T03:55:03;1.77;;;0.93;;
83550;SDS011;74617;47.082;15.524;2023-12-04T03:57:29;2.28;;;0.90;;
83550;SDS011;74617;47.082;15.524;2023-12-04T03:59:55;1.10;;;0.80;;
83550;SDS011;74617;47.082;15.524;2023-12-04T04:02:20;0.90;;;0.57;;
83550;SDS011;74617;47.082;15.524;2023-12-04T04:04:45;1.38;;;0.63;;
83550;SDS011;74617;47.082;15.524;2023-12-04T04:07:11;2.55;;;1.02;;
83550;SDS011;74617;47.082;15.524;2023-12-04T04:09:36;2.85;;;0.80;;
83550;SDS011;74617;47.082;15.524;2023-12-04T04:12:02;1.65;;;0.80;;
83550;SDS011;74617;47.082;15.524;2023-12-04T04:14:28;3.15;;;1.00;;
83550;SDS011;74617;47.082;15.524;2023-12-04T04:16:53;2.00;;;0.80;;
83550;SDS011;74617;47.082;15.524;2023-12-04T04:19:18;2.25;;;0.85;;
83550;SDS011;74617;47.082;15.524;2023-12-04T04:21:44;2.00;;;0.57;;
83550;SDS011;74617;47.082;15.524;2023-12-04T04:24:09;2.42;;;2.22;;
83550;SDS011;74617;47.082;15.524;2023-12-04T04:26:35;2.50;;;0.80;;
83550;SDS011;74617;47.082;15.524;2023-12-04T04:29:00;2.53;;;0.77;;
83550;SDS011;74617;47.082;15.524;2023-12-04T04:31:26;1.40;;;0.75;;
83550;SDS011;74617;47.082;15.524;2023-12-04T04:33:51;2.10;;;0.80;;
83550;SDS011;74617;47.082;15.524;2023-12-04T04:36:17;2.35;;;0.73;;
83550;SDS011;74617;47.082;15.524;2023-12-04T04:38:42;1.50;;;0.75;;
83550;SDS011;74617;47.082;15.524;2023-12-04T04:41:12;2.05;;;0.90;;
83550;SDS011;74617;47.082;15.524;2023-12-04T04:43:39;2.10;;;1.10;;
83550;SDS011;74617;47.082;15.524;2023-12-04T04:46:04;1.52;;;0.80;;
83550;SDS011;74617;47.082;15.524;2023-12-04T04:48:29;1.85;;;0.80;;
83550;SDS011;74617;47.082;15.524;2023-12-04T04:50:55;7.03;;;1.00;;
83550;SDS011;74617;47.082;15.524;2023-12-04T04:53:20;1.52;;;0.93;;
83550;SDS011;74617;47.082;15.524;2023-12-04T04:55:46;1.58;;;0.70;;
83550;SDS011;74617;47.082;15.524;2023-12-04T04:58:11;3.85;;;0.80;;
83550;SDS011;74617;47.082;15.524;2023-12-04T05:00:36;1.52;;;0.70;;
83550;SDS011;74617;47.082;15.524;2023-12-04T05:03:02;1.48;;;0.65;;
83550;SDS011;74617;47.082;15.524;2023-12-04T05:05:27;2.22;;;0.77;;
83550;SDS011;74617;47.082;15.524;2023-12-04T05:07:53;1.65;;;0.80;;
83550;SDS011;74617;47.082;15.524;2023-12-04T05:20:16;0.93;;;0.57;;
83550;SDS011;74617;47.082;15.524;2023-12-04T05:22:42;2.00;;;0.90;;
83550;SDS011;74617;47.082;15.524;2023-12-04T05:25:07;2.25;;;0.98;;
83550;SDS011;74617;47.082;15.524;2023-12-04T05:27:32;3.08;;;1.08;;
83550;SDS011;74617;47.082;15.524;2023-12-04T05:29:58;1.80;;;0.90;;
83550;SDS011;74617;47.082;15.524;2023-12-04T05:32:23;1.02;;;0.73;;
83550;SDS011;74617;47.082;15.524;2023-12-04T05:34:49;2.78;;;0.68;;
83550;SDS011;74617;47.082;15.524;2023-12-04T05:37:14;2.40;;;0.95;;
83550;SDS011;74617;47.082;15.524;2023-12-04T05:39:39;8.00;;;0.90;;
83550;SDS011;74617;47.082;15.524;2023-12-04T05:42:06;2.80;;;1.27;;
83550;SDS011;74617;47.082;15.524;2023-12-04T05:44:31;1.40;;;0.73;;
83550;SDS011;74617;47.082;15.524;2023-12-04T05:46:57;5.78;;;1.38;;
83550;SDS011;74617;47.082;15.524;2023-12-04T05:49:22;3.25;;;1.38;;
83550;SDS011;74617;47.082;15.524;2023-12-04T05:51:48;7.07;;;2.13;;
83550;SDS011;74617;47.082;15.524;2023-12-04T05:54:13;5.75;;;1.83;;
83550;SDS011;74617;47.082;15.524;2023-12-04T05:56:38;6.68;;;2.00;;
83550;SDS011;74617;47.082;15.524;2023-12-04T05:59:04;8.70;;;1.75;;
83550;SDS011;74617;47.082;15.524;2023-12-04T06:01:29;9.27;;;1.77;;
83550;SDS011;74617;47.082;15.524;2023-12-04T06:03:54;3.97;;;1.75;;
83550;SDS011;74617;47.082;15.524;2023-12-04T06:06:20;10.73;;;2.50;;
83550;SDS011;74617;47.082;15.524;2023-12-04T06:08:45;5.68;;;1.70;;
83550;SDS011;74617;47.082;15.524;2023-12-04T06:11:11;3.88;;;1.50;;
83550;SDS011;74617;47.082;15.524;2023-12-04T06:13:36;4.00;;;1.67;;
83550;SDS011;74617;47.082;15.524;2023-12-04T06:16:01;4.43;;;1.50;;
83550;SDS011;74617;47.082;15.524;2023-12-04T06:18:27;3.88;;;1.58;;
83550;SDS011;74617;47.082;15.524;2023-12-04T06:20:52;4.47;;;1.63;;
83550;SDS011;74617;47.082;15.524;2023-12-04T06:23:18;5.07;;;1.45;;
83550;SDS011;74617;47.082;15.524;2023-12-04T06:25:44;5.88;;;1.38;;
83550;SDS011;74617;47.082;15.524;2023-12-04T06:28:09;4.78;;;1.27;;
83550;SDS011;74617;47.082;15.524;2023-12-04T06:30:35;4.45;;;1.30;;
83550;SDS011;74617;47.082;15.524;2023-12-04T06:33:01;3.55;;;1.42;;
83550;SDS011;74617;47.082;15.524;2023-12-04T06:35:27;4.18;;;2.17;;
83550;SDS011;74617;47.082;15.524;2023-12-04T06:37:55;7.35;;;2.28;;
83550;SDS011;74617;47.082;15.524;2023-12-04T06:40:25;7.57;;;2.28;;
83550;SDS011;74617;47.082;15.524;2023-12-04T06:42:51;7.13;;;2.85;;
83550;SDS011;74617;47.082;15.524;2023-12-04T06:45:16;7.35;;;2.53;;
83550;SDS011;74617;47.082;15.524;2023-12-04T06:47:43;4.38;;;2.15;;
83550;SDS011;74617;47.082;15.524;2023-12-04T06:50:08;3.30;;;1.63;;
83550;SDS011;74617;47.082;15.524;2023-12-04T06:52:34;2.47;;;1.50;;
83550;SDS011;74617;47.082;15.524;2023-12-04T06:54:59;3.20;;;1.48;;
83550;SDS011;74617;47.082;15.524;2023-12-04T06:57:25;3.40;;;1.60;;
83550;SDS011;74617;47.082;15.524;2023-12-04T06:59:50;2.78;;;1.38;;
83550;SDS011;74617;47.082;15.524;2023-12-04T07:02:16;4.22;;;1.80;;
83550;SDS011;74617;47.082;15.524;2023-12-04T07:04:41;2.90;;;1.40;;
83550;SDS011;74617;47.082;15.524;2023-12-04T07:07:06;3.70;;;1.17;;
83550;SDS011;74617;47.082;15.524;2023-12-04T07:09:32;5.28;;;1.52;;
83550;SDS011;74617;47.082;15.524;2023-12-04T07:11:59;2.58;;;1.30;;
83550;SDS011;74617;47.082;15.524;2023-12-04T07:14:24;5.03;;;2.28;;
83550;SDS011;74617;47.082;15.524;2023-12-04T07:16:49;3.78;;;1.50;;
83550;SDS011;74617;47.082;15.524;2023-12-04T07:19:15;2.88;;;1.40;;
83550;SDS011;74617;47.082;15.524;2023-12-04T07:21:41;4.45;;;1.30;;
83550;SDS011;74617;47.082;15.524;2023-12-04T07:24:07;3.53;;;1.30;;
83550;SDS011;74617;47.082;15.524;2023-12-04T07:26:33;3.63;;;1.65;;
83550;SDS011;74617;47.082;15.524;2023-12-04T07:28:59;3.10;;;1.30;;
83550;SDS011;74617;47.082;15.524;2023-12-04T07:31:25;2.40;;;0.95;;
83550;SDS011;74617;47.082;15.524;2023-12-04T07:33:52;3.85;;;1.63;;
83550;SDS011;74617;47.082;15.524;2023-12-04T07:36:20;2.65;;;1.17;;
83550;SDS011;74617;47.082;15.524;2023-12-04T07:38:46;3.67;;;1.27;;
83550;SDS011;74617;47.082;15.524;2023-12-04T07:41:11;3.47;;;1.38;;
83550;SDS011;74617;47.082;15.524;2023-12-04T07:43:38;3.22;;;1.35;;
83550;SDS011;74617;47.082;15.524;2023-12-04T07:46:04;2.05;;;1.00;;
83550;SDS011;74617;47.082;15.524;2023-12-04T07:48:30;2.55;;;1.38;;
83550;SDS011;74617;47.082;15.524;2023-12-04T07:50:56;3.47;;;1.45;;
83550;SDS011;74617;47.082;15.524;2023-12-04T07:55:42;2.22;;;0.98;;
83550;SDS011;74617;47.082;15.524;2023-12-04T07:58:09;4.15;;;1.17;;
83550;SDS011;74617;47.082;15.524;2023-12-04T08:00:34;4.90;;;1.35;;
83550;SDS011;74617;47.082;15.524;2023-12-04T08:03:00;1.83;;;1.00;;
83550;SDS011;74617;47.082;15.524;2023-12-04T08:05:25;1.95;;;0.90;;
83550;SDS011;74617;47.082;15.524;2023-12-04T08:07:52;4.10;;;1.45;;
83550;SDS011;74617;47.082;15.524;2023-12-04T08:10:17;0.98;;;0.68;;
83550;SDS011;74617;47.082;15.524;2023-12-04T08:12:46;4.25;;;1.50;;
83550;SDS011;74617;47.082;15.524;2023-12-04T08:15:11;4.22;;;1.08;;
83550;SDS011;74617;47.082;15.524;2023-12-04T08:17:37;2.58;;;0.93;;
83550;SDS011;74617;47.082;15.524;2023-12-04T08:20:02;1.98;;;1.05;;
83550;SDS011;74617;47.082;15.524;2023-12-04T08:22:29;2.75;;;0.98;;
83550;SDS011;74617;47.082;15.524;2023-12-04T08:24:54;1.63;;;0.80;;
83550;SDS011;74617;47.082;15.524;2023-12-04T08:27:19;1.98;;;1.02;;
83550;SDS011;74617;47.082;15.524;2023-12-04T08:29:46;1.65;;;0.95;;
83550;SDS011;74617;47.082;15.524;2023-12-04T08:32:11;2.53;;;1.30;;
83550;SDS011;74617;47.082;15.524;2023-12-04T08:34:37;2.30;;;1.17;;
83550;SDS011;74617;47.082;15.524;2023-12-04T08:37:02;1.45;;;0.93;;
83550;SDS011;74617;47.082;15.524;2023-12-04T08:39:28;1.88;;;0.98;;
83550;SDS011;74617;47.082;15.524;2023-12-04T08:41:53;2.55;;;1.33;;
83550;SDS011;74617;47.082;15.524;2023-12-04T08:44:18;2.53;;;0.93;;
83550;SDS011;74617;47.082;15.524;2023-12-04T08:46:44;1.65;;;0.88;;
83550;SDS011;74617;47.082;15.524;2023-12-04T08:49:10;3.30;;;1.40;;
83550;SDS011;74617;47.082;15.524;2023-12-04T08:51:35;2.83;;;1.10;;
83550;SDS011;74617;47.082;15.524;2023-12-04T08:54:01;1.55;;;0.80;;
83550;SDS011;74617;47.082;15.524;2023-12-04T08:56:26;1.67;;;0.60;;
83550;SDS011;74617;47.082;15.524;2023-12-04T08:58:51;2.47;;;1.10;;
83550;SDS011;74617;47.082;15.524;2023-12-04T09:01:17;2.53;;;1.10;;
83550;SDS011;74617;47.082;15.524;2023-12-04T09:03:42;1.83;;;0.75;;
83550;SDS011;74617;47.082;15.524;2023-12-04T09:06:08;2.38;;;1.02;;
83550;SDS011;74617;47.082;15.524;2023-12-04T09:08:34;2.67;;;0.90;;
83550;SDS011;74617;47.082;15.524;2023-12-04T09:11:00;3.40;;;1.02;;
83550;SDS011;74617;47.082;15.524;2023-12-04T09:13:25;4.43;;;1.35;;
83550;SDS011;74617;47.082;15.524;2023-12-04T09:15:51;0.95;;;0.47;;
83550;SDS011;74617;47.082;15.524;2023-12-04T09:18:17;1.70;;;1.00;;
83550;SDS011;74617;47.082;15.524;2023-12-04T09:20:42;3.92;;;0.98;;
83550;SDS011;74617;47.082;15.524;2023-12-04T09:23:08;1.60;;;0.90;;
83550;SDS011;74617;47.082;15.524;2023-12-04T09:25:34;2.50;;;0.98;;
83550;SDS011;74617;47.082;15.524;2023-12-04T09:28:00;6.18;;;1.05;;
83550;SDS011;74617;47.082;15.524;2023-12-04T09:30:25;1.77;;;0.90;;
83550;SDS011;74617;47.082;15.524;2023-12-04T09:32:51;1.23;;;0.60;;
83550;SDS011;74617;47.082;15.524;2023-12-04T09:35:16;6.25;;;1.00;;
83550;SDS011;74617;47.082;15.524;2023-12-04T09:37:41;1.55;;;0.98;;
83550;SDS011;74617;47.082;15.524;2023-12-04T09:40:07;2.28;;;1.08;;
83550;SDS011;74617;47.082;15.524;2023-12-04T09:42:33;2.13;;;1.02;;
83550;SDS011;74617;47.082;15.524;2023-12-04T09:44:59;2.38;;;0.90;;
83550;SDS011;74617;47.082;15.524;2023-12-04T09:47:26;2.72;;;1.13;;
83550;SDS011;74617;47.082;15.524;2023-12-04T09:49:52;1.65;;;0.80;;
83550;SDS011;74617;47.082;15.524;2023-12-04T09:52:19;2.92;;;0.93;;
83550;SDS011;74617;47.082;15.524;2023-12-04T09:54:45;1.77;;;0.82;;
83550;SDS011;74617;47.082;15.524;2023-12-04T09:57:11;2.05;;;0.90;;
83550;SDS011;74617;47.082;15.524;2023-12-04T09:59:37;1.75;;;0.73;;
83550;SDS011;74617;47.082;15.524;2023-12-04T10:02:04;1.25;;;0.70;;
83550;SDS011;74617;47.082;15.524;2023-12-04T10:04:30;2.33;;;1.05;;
83550;SDS011;74617;47.082;15.524;2023-12-04T10:06:56;1.77;;;0.95;;
83550;SDS011;74617;47.082;15.524;2023-12-04T10:09:22;2.33;;;1.00;;
83550;SDS011;74617;47.082;15.524;2023-12-04T10:11:48;3.20;;;1.08;;
83550;SDS011;74617;47.082;15.524;2023-12-04T10:14:16;1.85;;;0.75;;
83550;SDS011;74617;47.082;15.524;2023-12-04T10:16:45;3.53;;;0.88;;
83550;SDS011;74617;47.082;15.524;2023-12-04T10:19:24;2.42;;;0.98;;
83550;SDS011;74617;47.082;15.524;2023-12-04T10:21:51;1.85;;;0.90;;
83550;SDS011;74617;47.082;15.524;2023-12-04T10:24:28;1.70;;;0.77;;
83550;SDS011;74617;47.082;15.524;2023-12-04T10:26:55;1.88;;;0.93;;
83550;SDS011;74617;47.082;15.524;2023-12-04T10:29:21;2.65;;;0.73;;
83550;SDS011;74617;47.082;15.524;2023-12-04T10:31:47;1.88;;;0.80;;
83550;SDS011;74617;47.082;15.524;2023-12-04T10:34:15;1.80;;;0.80;;
83550;SDS011;74617;47.082;15.524;2023-12-04T10:36:41;2.58;;;0.95;;
83550;SDS011;74617;47.082;15.524;2023-12-04T10:39:06;4.07;;;1.35;;
83550;SDS011;74617;47.082;15.524;2023-12-04T10:41:32;2.05;;;0.90;;
83550;SDS011;74617;47.082;15.524;2023-12-04T10:43:58;2.53;;;1.20;;
83550;SDS011;74617;47.082;15.524;2023-12-04T10:46:24;1.13;;;0.52;;
83550;SDS011;74617;47.082;15.524;2023-12-04T10:48:50;1.17;;;0.80;;
83550;SDS011;74617;47.082;15.524;2023-12-04T10:51:16;2.38;;;1.13;;
83550;SDS011;74617;47.082;15.524;2023-12-04T10:53:42;2.92;;;1.05;;
83550;SDS011;74617;47.082;15.524;2023-12-04T10:56:10;3.17;;;0.80;;
83550;SDS011;74617;47.082;15.524;2023-12-04T10:58:39;5.75;;;1.20;;
83550;SDS011;74617;47.082;15.524;2023-12-04T11:01:06;2.67;;;0.88;;
83550;SDS011;74617;47.082;15.524;2023-12-04T11:03:40;2.38;;;0.98;;
83550;SDS011;74617;47.082;15.524;2023-12-04T11:06:09;2.10;;;0.90;;
83550;SDS011;74617;47.082;15.524;2023-12-04T11:08:37;1.40;;;0.75;;
83550;SDS011;74617;47.082;15.524;2023-12-04T11:11:08;2.33;;;1.00;;
83550;SDS011;74617;47.082;15.524;2023-12-04T11:13:39;2.72;;;1.15;;
83550;SDS011;74617;47.082;15.524;2023-12-04T11:16:12;2.22;;;0.82;;
83550;SDS011;74617;47.082;15.524;2023-12-04T11:18:43;3.05;;;1.10;;
83550;SDS011;74617;47.082;15.524;2023-12-04T11:21:12;1.75;;;0.70;;
83550;SDS011;74617;47.082;15.524;2023-12-04T11:23:37;1.80;;;0.95;;
83550;SDS011;74617;47.082;15.524;2023-12-04T11:26:04;3.95;;;0.90;;
83550;SDS011;74617;47.082;15.524;2023-12-04T11:28:33;1.65;;;0.80;;
83550;SDS011;74617;47.082;15.524;2023-12-04T11:31:01;2.65;;;1.33;;
83550;SDS011;74617;47.082;15.524;2023-12-04T11:33:27;2.60;;;1.17;;
83550;SDS011;74617;47.082;15.524;2023-12-04T11:35:52;1.90;;;0.90;;
83550;SDS011;74617;47.082;15.524;2023-12-04T11:38:31;2.70;;;0.98;;
83550;SDS011;74617;47.082;15.524;2023-12-04T11:40:58;2.50;;;1.10;;
83550;SDS011;74617;47.082;15.524;2023-12-04T11:43:24;2.80;;;1.10;;
83550;SDS011;74617;47.082;15.524;2023-12-04T11:45:50;1.50;;;0.93;;
83550;SDS011;74617;47.082;15.524;2023-12-04T11:48:16;2.95;;;1.23;;
83550;SDS011;74617;47.082;15.524;2023-12-04T11:50:44;2.45;;;1.20;;
83550;SDS011;74617;47.082;15.524;2023-12-04T11:53:10;3.53;;;1.33;;
83550;SDS011;74617;47.082;15.524;2023-12-04T11:55:40;1.95;;;0.93;;
83550;SDS011;74617;47.082;15.524;2023-12-04T11:58:09;2.10;;;0.82;;
83550;SDS011;74617;47.082;15.524;2023-12-04T12:00:36;1.92;;;0.88;;
83550;SDS011;74617;47.082;15.524;2023-12-04T12:03:04;2.25;;;0.93;;
83550;SDS011;74617;47.082;15.524;2023-12-04T12:05:32;3.03;;;1.00;;
83550;SDS011;74617;47.082;15.524;2023-12-04T12:08:00;1.52;;;0.80;;
83550;SDS011;74617;47.082;15.524;2023-12-04T12:10:27;4.72;;;1.30;;
83550;SDS011;74617;47.082;15.524;2023-12-04T12:12:53;3.65;;;1.48;;
83550;SDS011;74617;47.082;15.524;2023-12-04T12:15:19;2.97;;;1.00;;
83550;SDS011;74617;47.082;15.524;2023-12-04T12:17:44;1.73;;;0.90;;
83550;SDS011;74617;47.082;15.524;2023-12-04T12:20:11;1.63;;;0.73;;
83550;SDS011;74617;47.082;15.524;2023-12-04T12:22:39;1.80;;;0.95;;
83550;SDS011;74617;47.082;15.524;2023-12-04T12:25:11;1.67;;;0.93;;
83550;SDS011;74617;47.082;15.524;2023-12-04T12:27:37;1.38;;;0.82;;
83550;SDS011;74617;47.082;15.524;2023-12-04T12:30:03;1.92;;;1.10;;
83550;SDS011;74617;47.082;15.524;2023-12-04T12:32:33;6.40;;;1.60;;
83550;SDS011;74617;47.082;15.524;2023-12-04T12:34:59;9.18;;;1.55;;
83550;SDS011;74617;47.082;15.524;2023-12-04T12:37:24;4.22;;;1.40;;
83550;SDS011;74617;47.082;15.524;2023-12-04T12:39:50;2.58;;;1.17;;
83550;SDS011;74617;47.082;15.524;2023-12-04T12:42:27;2.67;;;1.30;;
83550;SDS011;74617;47.082;15.524;2023-12-04T12:44:53;2.35;;;1.20;;
83550;SDS011;74617;47.082;15.524;2023-12-04T12:47:20;4.10;;;1.50;;
83550;SDS011;74617;47.082;15.524;2023-12-04T12:49:45;4.57;;;2.17;;
83550;SDS011;74617;47.082;15.524;2023-12-04T12:52:11;8.13;;;2.20;;
83550;SDS011;74617;47.082;15.524;2023-12-04T12:54:37;9.27;;;2.53;;
83550;SDS011;74617;47.082;15.524;2023-12-04T12:57:06;5.25;;;2.22;;
83550;SDS011;74617;47.082;15.524;2023-12-04T12:59:34;5.05;;;2.28;;
83550;SDS011;74617;47.082;15.524;2023-12-04T13:02:00;4.38;;;1.70;;
83550;SDS011;74617;47.082;15.524;2023-12-04T13:04:26;3.03;;;1.65;;
83550;SDS011;74617;47.082;15.524;2023-12-04T13:06:58;3.40;;;1.23;;
83550;SDS011;74617;47.082;15.524;2023-12-04T13:09:24;2.47;;;1.42;;
83550;SDS011;74617;47.082;15.524;2023-12-04T13:11:49;3.50;;;1.55;;
83550;SDS011;74617;47.082;15.524;2023-12-04T13:14:16;2.90;;;1.50;;
83550;SDS011;74617;47.082;15.524;2023-12-04T13:16:42;3.05;;;1.50;;
83550;SDS011;74617;47.082;15.524;2023-12-04T13:19:07;3.45;;;1.30;;
83550;SDS011;74617;47.082;15.524;2023-12-04T13:21:33;2.22;;;1.20;;
83550;SDS011;74617;47.082;15.524;2023-12-04T13:23:58;5.13;;;1.20;;
83550;SDS011;74617;47.082;15.524;2023-12-04T13:26:24;2.78;;;1.25;;
83550;SDS011;74617;47.082;15.524;2023-12-04T13:28:49;3.55;;;1.45;;
83550;SDS011;74617;47.082;15.524;2023-12-04T13:31:15;11.05;;;5.13;;
83550;SDS011;74617;47.082;15.524;2023-12-04T13:33:40;456.55;;;194.50;;
83550;SDS011;74617;47.082;15.524;2023-12-04T13:36:08;100.63;;;33.47;;
83550;SDS011;74617;47.082;15.524;2023-12-04T13:38:34;461.58;;;152.95;;
83550;SDS011;74617;47.082;15.524;2023-12-04T13:41:00;558.97;;;179.70;;
83550;SDS011;74617;47.082;15.524;2023-12-04T13:43:43;503.00;;;154.40;;
83550;SDS011;74617;47.082;15.524;2023-12-04T13:46:15;470.42;;;136.88;;
83550;SDS011;74617;47.082;15.524;2023-12-04T13:48:40;441.42;;;123.53;;
83550;SDS011;74617;47.082;15.524;2023-12-04T13:51:08;381.02;;;109.30;;
83550;SDS011;74617;47.082;15.524;2023-12-04T13:53:34;377.70;;;102.68;;
83550;SDS011;74617;47.082;15.524;2023-12-04T13:56:01;343.92;;;94.75;;
83550;SDS011;74617;47.082;15.524;2023-12-04T13:58:26;334.17;;;93.45;;
83550;SDS011;74617;47.082;15.524;2023-12-04T14:01:00;300.02;;;84.53;;
83550;SDS011;74617;47.082;15.524;2023-12-04T14:03:34;306.27;;;87.25;;
83550;SDS011;74617;47.082;15.524;2023-12-04T14:06:00;286.83;;;83.00;;
83550;SDS011;74617;47.082;15.524;2023-12-04T14:08:26;271.73;;;79.25;;
83550;SDS011;74617;47.082;15.524;2023-12-04T14:10:51;275.08;;;77.90;;
83550;SDS011;74617;47.082;15.524;2023-12-04T14:13:17;277.08;;;77.47;;
83550;SDS011;74617;47.082;15.524;2023-12-04T14:15:43;258.60;;;74.45;;
83550;SDS011;74617;47.082;15.524;2023-12-04T14:18:08;263.10;;;72.47;;
83550;SDS011;74617;47.082;15.524;2023-12-04T14:20:33;256.15;;;70.40;;
83550;SDS011;74617;47.082;15.524;2023-12-04T14:22:59;245.63;;;72.22;;
83550;SDS011;74617;47.082;15.524;2023-12-04T14:25:24;237.18;;;66.72;;
83550;SDS011;74617;47.082;15.524;2023-12-04T14:27:50;236.18;;;67.75;;
83550;SDS011;74617;47.082;15.524;2023-12-04T14:30:15;235.70;;;65.47;;
83550;SDS011;74617;47.082;15.524;2023-12-04T14:32:41;236.65;;;67.93;;
83550;SDS011;74617;47.082;15.524;2023-12-04T14:35:06;218.63;;;63.17;;
83550;SDS011;74617;47.082;15.524;2023-12-04T14:37:32;186.10;;;49.25;;